Kirksville Regional Airport
KIRK : rendu visible

Aérodrome :











RETROUVEZ-NOUS SUR...

 
LOGIN :

S'inscrire | Disclaimer

   EN    FR    IT 

 









Légende :    VFR   VFR Marginal   IFR   IFR Intensif   IFR Très Intensif
Visi : 
Plafond : 
>= 8 km
>= 3000ft
5 à 8 km
1000 à 3000 ft
1500m à 5 km
500 à 1000 ft
800 à 1500m
200 à 500 ft
< 800m
< 200 ft
Symboles :   Orages  Brouillard  Fortes neiges  Fortes précipitations  Vent > 20 kt






- Altitude de l'aérodrome : 966 ft
- Code IATA : IRK


KIRK - Kirksville Regional

DERNIER METAR :
  • 260355Z AUTO 14004KT 10SM CLR 18/17 A2992 RMK AO2 SLP127 T01830172

METARs EXPIRÉS :
  • 260255Z AUTO 11006KT 10SM FEW065 18/18 A2992 RMK AO2 RAE0157 TSE0156 SLP129 P0000 60053 T01830178 51021
  • 260202Z AUTO 13005KT 10SM FEW055 SCT080 BKN090 19/18 A2991 RMK AO2 LTG DSNT N AND NW RAE0157 TSE0156 P0000 T01940183
  • 260155Z AUTO 14004KT 10SM -TSRA SCT042 BKN090 BKN110 19/18 A2991 RMK AO2 PK WND 17026/0119 LTG DSNT N AND SW RAB11 TSB29 SLP125 P0053 T01940178
  • 260138Z AUTO 25003G18KT 2SM -TSRA BR FEW011 BKN034 OVC110 19/17 A2991 RMK AO2 PK WND 17026/0119 LTG DSNT SW RAB11 TSB29 P0052 T01940172
  • 260129Z AUTO 24010G26KT 3/4SM +TSRA BR FEW009 BKN020 OVC085 19/18 A2992 RMK AO2 PK WND 17026/0119 LTG DSNT S AND SW RAB11 TSB29 P0035 T01940183
  • 260124Z AUTO 20015G26KT 1 1/2SM VCTS +RA BR SCT009 BKN018 OVC085 21/19 A2995 RMK AO2 PK WND 17026/0119 LTG DSNT S-NW RAB11 P0005 T02060194

TAF N/A
FIR KZKC / Amérique du Nord



MET'MAP, la Météo Aéronautique d'un coup d'oeil ! - Copyright ORBIFLY Décembre 2007 - Disclaimer

ORBIFLY MET'MAP TEAM :

Programmation & Développement : Alexandra Zaïnal
Sur une idée originale de : Baudouin d'Aumeries
Assistance à la programmation : Marc-Olivier Méhu
Soutien technique & logistique : Manuel Goepfert

Contact : metmap@orbifly.com




SOURCES & CREDITS :

   NOAA       Earth
Advisory